Terminal Aerodrome Forecast
Issued by NWS Caribou, ME

Home | Current Version | Previous Version | Text Only | Print | Product List | Glossary On
Versions: 1 2 3 4 5 6 7 8 9 10 11 12 13 14 15 16
667
FTUS41 KCAR 231120
TAFBGR
TAF
KBGR 231120Z 2312/2412 18005KT P6SM -RA OVC050
     FM231600 18011G19KT P6SM -RA BKN008 OVC060
     FM232200 18009KT P6SM VCSH BKN005 OVC010
     FM240000 19007KT 2SM BR BKN003 OVC009=

USA.gov is the U.S. government's official web portal to all federal, state and local government web resources and services.